sensor_id;sensor_type;location;lat;lon;timestamp;P1;durP1;ratioP1;P2;durP2;ratioP2
483;SDS011;228;48.922;12.198;2022-12-13T00:01:43;8.93;;;4.70;;
483;SDS011;228;48.922;12.198;2022-12-13T00:04:15;10.13;;;4.93;;
483;SDS011;228;48.922;12.198;2022-12-13T00:06:41;8.10;;;5.10;;
483;SDS011;228;48.922;12.198;2022-12-13T00:09:09;11.30;;;5.60;;
483;SDS011;228;48.922;12.198;2022-12-13T00:11:38;13.63;;;5.83;;
483;SDS011;228;48.922;12.198;2022-12-13T00:14:04;11.23;;;6.03;;
483;SDS011;228;48.922;12.198;2022-12-13T00:16:30;8.63;;;5.27;;
483;SDS011;228;48.922;12.198;2022-12-13T00:18:59;11.23;;;6.00;;
483;SDS011;228;48.922;12.198;2022-12-13T00:21:27;11.73;;;4.87;;
483;SDS011;228;48.922;12.198;2022-12-13T00:23:55;7.53;;;4.80;;
483;SDS011;228;48.922;12.198;2022-12-13T00:26:30;12.47;;;5.87;;
483;SDS011;228;48.922;12.198;2022-12-13T00:29:01;8.87;;;5.03;;
483;SDS011;228;48.922;12.198;2022-12-13T00:31:30;8.67;;;5.33;;
483;SDS011;228;48.922;12.198;2022-12-13T00:33:57;7.97;;;5.23;;
483;SDS011;228;48.922;12.198;2022-12-13T00:36:25;11.07;;;6.30;;
483;SDS011;228;48.922;12.198;2022-12-13T00:38:51;7.10;;;4.80;;
483;SDS011;228;48.922;12.198;2022-12-13T00:41:27;9.67;;;4.87;;
483;SDS011;228;48.922;12.198;2022-12-13T00:43:56;8.90;;;5.07;;
483;SDS011;228;48.922;12.198;2022-12-13T00:46:23;11.00;;;6.30;;
483;SDS011;228;48.922;12.198;2022-12-13T00:48:51;6.10;;;3.80;;
483;SDS011;228;48.922;12.198;2022-12-13T00:51:20;8.47;;;4.90;;
483;SDS011;228;48.922;12.198;2022-12-13T00:53:47;7.93;;;3.17;;
483;SDS011;228;48.922;12.198;2022-12-13T00:56:19;5.70;;;3.20;;
483;SDS011;228;48.922;12.198;2022-12-13T00:58:49;6.83;;;3.67;;
483;SDS011;228;48.922;12.198;2022-12-13T01:01:16;10.47;;;4.23;;
483;SDS011;228;48.922;12.198;2022-12-13T01:03:45;13.33;;;6.03;;
483;SDS011;228;48.922;12.198;2022-12-13T01:06:13;10.53;;;4.27;;
483;SDS011;228;48.922;12.198;2022-12-13T01:08:43;10.63;;;6.30;;
483;SDS011;228;48.922;12.198;2022-12-13T01:11:10;7.13;;;4.80;;
483;SDS011;228;48.922;12.198;2022-12-13T01:13:37;9.73;;;4.90;;
483;SDS011;228;48.922;12.198;2022-12-13T01:16:05;8.93;;;5.63;;
483;SDS011;228;48.922;12.198;2022-12-13T01:18:34;9.23;;;5.23;;
483;SDS011;228;48.922;12.198;2022-12-13T01:21:02;7.63;;;4.27;;
483;SDS011;228;48.922;12.198;2022-12-13T01:23:39;7.90;;;4.13;;
483;SDS011;228;48.922;12.198;2022-12-13T01:26:07;10.57;;;5.03;;
483;SDS011;228;48.922;12.198;2022-12-13T01:28:39;6.87;;;4.53;;
483;SDS011;228;48.922;12.198;2022-12-13T01:31:07;10.00;;;6.70;;
483;SDS011;228;48.922;12.198;2022-12-13T01:33:37;9.70;;;4.73;;
483;SDS011;228;48.922;12.198;2022-12-13T01:36:05;9.17;;;5.30;;
483;SDS011;228;48.922;12.198;2022-12-13T01:38:35;7.80;;;4.83;;
483;SDS011;228;48.922;12.198;2022-12-13T01:41:01;12.57;;;5.43;;
483;SDS011;228;48.922;12.198;2022-12-13T01:46:06;15.83;;;5.37;;
483;SDS011;228;48.922;12.198;2022-12-13T01:48:35;11.50;;;6.43;;
483;SDS011;228;48.922;12.198;2022-12-13T01:51:07;7.20;;;5.33;;
483;SDS011;228;48.922;12.198;2022-12-13T01:53:37;13.07;;;6.00;;
483;SDS011;228;48.922;12.198;2022-12-13T01:56:07;12.17;;;6.13;;
483;SDS011;228;48.922;12.198;2022-12-13T01:58:40;12.23;;;6.50;;
483;SDS011;228;48.922;12.198;2022-12-13T02:01:07;14.77;;;7.43;;
483;SDS011;228;48.922;12.198;2022-12-13T02:03:33;12.00;;;6.70;;
483;SDS011;228;48.922;12.198;2022-12-13T02:06:00;17.23;;;7.97;;
483;SDS011;228;48.922;12.198;2022-12-13T02:08:35;15.47;;;7.27;;
483;SDS011;228;48.922;12.198;2022-12-13T02:11:04;16.17;;;8.13;;
483;SDS011;228;48.922;12.198;2022-12-13T02:13:33;14.30;;;8.13;;
483;SDS011;228;48.922;12.198;2022-12-13T02:33:52;16.53;;;9.03;;
483;SDS011;228;48.922;12.198;2022-12-13T02:36:43;16.27;;;7.57;;
483;SDS011;228;48.922;12.198;2022-12-13T02:39:33;13.60;;;8.10;;
483;SDS011;228;48.922;12.198;2022-12-13T02:42:13;19.40;;;9.17;;
483;SDS011;228;48.922;12.198;2022-12-13T02:44:49;17.23;;;8.27;;
483;SDS011;228;48.922;12.198;2022-12-13T02:47:29;19.20;;;9.17;;
483;SDS011;228;48.922;12.198;2022-12-13T02:49:58;18.60;;;9.03;;
483;SDS011;228;48.922;12.198;2022-12-13T02:52:30;23.90;;;8.93;;
483;SDS011;228;48.922;12.198;2022-12-13T02:54:57;21.07;;;9.87;;
483;SDS011;228;48.922;12.198;2022-12-13T02:57:31;22.47;;;10.90;;
483;SDS011;228;48.922;12.198;2022-12-13T03:00:12;16.90;;;9.50;;
483;SDS011;228;48.922;12.198;2022-12-13T03:20:28;24.00;;;10.47;;
483;SDS011;228;48.922;12.198;2022-12-13T03:22:55;25.43;;;9.80;;
483;SDS011;228;48.922;12.198;2022-12-13T03:25:23;18.60;;;8.93;;
483;SDS011;228;48.922;12.198;2022-12-13T03:27:56;23.83;;;10.73;;
483;SDS011;228;48.922;12.198;2022-12-13T03:30:22;21.57;;;10.17;;
483;SDS011;228;48.922;12.198;2022-12-13T03:32:48;20.57;;;9.60;;
483;SDS011;228;48.922;12.198;2022-12-13T03:35:14;30.27;;;10.03;;
483;SDS011;228;48.922;12.198;2022-12-13T03:37:40;29.73;;;11.30;;
483;SDS011;228;48.922;12.198;2022-12-13T03:40:06;24.57;;;10.17;;
483;SDS011;228;48.922;12.198;2022-12-13T03:42:33;17.33;;;9.40;;
483;SDS011;228;48.922;12.198;2022-12-13T03:44:59;21.03;;;10.57;;
483;SDS011;228;48.922;12.198;2022-12-13T03:47:25;30.20;;;12.07;;
483;SDS011;228;48.922;12.198;2022-12-13T03:49:51;26.27;;;10.97;;
483;SDS011;228;48.922;12.198;2022-12-13T03:52:17;27.63;;;11.23;;
483;SDS011;228;48.922;12.198;2022-12-13T03:54:43;30.47;;;12.07;;
483;SDS011;228;48.922;12.198;2022-12-13T03:57:09;26.27;;;10.47;;
483;SDS011;228;48.922;12.198;2022-12-13T03:59:35;29.03;;;13.03;;
483;SDS011;228;48.922;12.198;2022-12-13T04:02:01;24.67;;;11.23;;
483;SDS011;228;48.922;12.198;2022-12-13T04:04:27;23.80;;;12.23;;
483;SDS011;228;48.922;12.198;2022-12-13T04:06:53;22.97;;;10.60;;
483;SDS011;228;48.922;12.198;2022-12-13T04:09:19;24.37;;;11.27;;
483;SDS011;228;48.922;12.198;2022-12-13T04:11:45;19.40;;;10.37;;
483;SDS011;228;48.922;12.198;2022-12-13T04:14:29;25.27;;;10.93;;
483;SDS011;228;48.922;12.198;2022-12-13T04:16:55;25.33;;;10.33;;
483;SDS011;228;48.922;12.198;2022-12-13T04:19:21;28.97;;;10.57;;
483;SDS011;228;48.922;12.198;2022-12-13T04:21:47;19.83;;;10.83;;
483;SDS011;228;48.922;12.198;2022-12-13T04:24:13;27.43;;;10.90;;
483;SDS011;228;48.922;12.198;2022-12-13T04:26:40;30.17;;;14.27;;
483;SDS011;228;48.922;12.198;2022-12-13T04:29:06;28.87;;;12.87;;
483;SDS011;228;48.922;12.198;2022-12-13T04:31:32;21.27;;;11.00;;
483;SDS011;228;48.922;12.198;2022-12-13T04:33:58;26.43;;;12.07;;
483;SDS011;228;48.922;12.198;2022-12-13T04:36:24;33.37;;;12.77;;
483;SDS011;228;48.922;12.198;2022-12-13T04:38:50;26.50;;;10.60;;
483;SDS011;228;48.922;12.198;2022-12-13T04:41:17;25.80;;;10.57;;
483;SDS011;228;48.922;12.198;2022-12-13T04:43:46;30.90;;;12.87;;
483;SDS011;228;48.922;12.198;2022-12-13T04:46:17;25.63;;;11.03;;
483;SDS011;228;48.922;12.198;2022-12-13T04:48:45;22.60;;;11.23;;
483;SDS011;228;48.922;12.198;2022-12-13T04:51:11;22.87;;;10.43;;
483;SDS011;228;48.922;12.198;2022-12-13T04:53:39;24.90;;;11.57;;
483;SDS011;228;48.922;12.198;2022-12-13T04:56:05;23.87;;;11.37;;
483;SDS011;228;48.922;12.198;2022-12-13T04:58:32;23.97;;;10.90;;
483;SDS011;228;48.922;12.198;2022-12-13T05:00:58;22.50;;;11.00;;
483;SDS011;228;48.922;12.198;2022-12-13T05:03:24;26.77;;;11.37;;
483;SDS011;228;48.922;12.198;2022-12-13T05:05:50;21.77;;;9.37;;
483;SDS011;228;48.922;12.198;2022-12-13T05:08:16;17.03;;;8.70;;
483;SDS011;228;48.922;12.198;2022-12-13T05:10:42;19.87;;;10.40;;
483;SDS011;228;48.922;12.198;2022-12-13T05:13:08;17.67;;;8.73;;
483;SDS011;228;48.922;12.198;2022-12-13T05:15:35;20.40;;;10.10;;
483;SDS011;228;48.922;12.198;2022-12-13T05:18:01;26.60;;;10.87;;
483;SDS011;228;48.922;12.198;2022-12-13T05:20:30;28.60;;;11.87;;
483;SDS011;228;48.922;12.198;2022-12-13T05:22:56;17.00;;;9.00;;
483;SDS011;228;48.922;12.198;2022-12-13T05:25:23;18.63;;;9.93;;
483;SDS011;228;48.922;12.198;2022-12-13T05:27:50;15.00;;;7.77;;
483;SDS011;228;48.922;12.198;2022-12-13T05:30:17;18.07;;;8.63;;
483;SDS011;228;48.922;12.198;2022-12-13T05:32:44;12.70;;;7.90;;
483;SDS011;228;48.922;12.198;2022-12-13T05:35:11;17.00;;;8.83;;
483;SDS011;228;48.922;12.198;2022-12-13T05:37:38;18.83;;;9.03;;
483;SDS011;228;48.922;12.198;2022-12-13T05:40:04;17.20;;;7.73;;
483;SDS011;228;48.922;12.198;2022-12-13T05:42:31;17.87;;;8.23;;
483;SDS011;228;48.922;12.198;2022-12-13T05:44:57;14.07;;;7.40;;
483;SDS011;228;48.922;12.198;2022-12-13T05:47:24;19.00;;;8.63;;
483;SDS011;228;48.922;12.198;2022-12-13T05:49:50;15.33;;;8.33;;
483;SDS011;228;48.922;12.198;2022-12-13T05:52:17;13.77;;;7.27;;
483;SDS011;228;48.922;12.198;2022-12-13T05:54:44;17.10;;;7.90;;
483;SDS011;228;48.922;12.198;2022-12-13T05:57:10;12.73;;;6.50;;
483;SDS011;228;48.922;12.198;2022-12-13T05:59:36;18.77;;;7.10;;
483;SDS011;228;48.922;12.198;2022-12-13T06:02:03;15.93;;;7.93;;
483;SDS011;228;48.922;12.198;2022-12-13T06:04:29;13.93;;;6.53;;
483;SDS011;228;48.922;12.198;2022-12-13T06:06:55;18.27;;;8.30;;
483;SDS011;228;48.922;12.198;2022-12-13T06:09:21;16.83;;;7.77;;
483;SDS011;228;48.922;12.198;2022-12-13T06:11:47;13.40;;;5.77;;
483;SDS011;228;48.922;12.198;2022-12-13T06:14:14;13.63;;;6.47;;
483;SDS011;228;48.922;12.198;2022-12-13T06:16:40;13.97;;;6.87;;
483;SDS011;228;48.922;12.198;2022-12-13T06:19:06;13.97;;;7.23;;
483;SDS011;228;48.922;12.198;2022-12-13T06:21:33;15.67;;;7.07;;
483;SDS011;228;48.922;12.198;2022-12-13T06:23:59;17.57;;;8.00;;
483;SDS011;228;48.922;12.198;2022-12-13T06:26:26;13.20;;;6.73;;
483;SDS011;228;48.922;12.198;2022-12-13T06:28:52;14.40;;;7.17;;
483;SDS011;228;48.922;12.198;2022-12-13T06:31:18;15.90;;;7.77;;
483;SDS011;228;48.922;12.198;2022-12-13T06:33:47;12.47;;;6.97;;
483;SDS011;228;48.922;12.198;2022-12-13T06:36:14;11.97;;;6.43;;
483;SDS011;228;48.922;12.198;2022-12-13T06:38:40;13.93;;;7.67;;
483;SDS011;228;48.922;12.198;2022-12-13T06:41:13;13.67;;;6.57;;
483;SDS011;228;48.922;12.198;2022-12-13T06:43:41;13.30;;;6.43;;
483;SDS011;228;48.922;12.198;2022-12-13T06:46:09;13.50;;;6.77;;
483;SDS011;228;48.922;12.198;2022-12-13T06:48:35;11.90;;;7.10;;
483;SDS011;228;48.922;12.198;2022-12-13T06:51:02;13.43;;;8.10;;
483;SDS011;228;48.922;12.198;2022-12-13T06:53:29;13.20;;;7.13;;
483;SDS011;228;48.922;12.198;2022-12-13T06:55:56;15.60;;;7.73;;
483;SDS011;228;48.922;12.198;2022-12-13T06:58:28;17.07;;;7.37;;
483;SDS011;228;48.922;12.198;2022-12-13T07:01:04;14.77;;;7.80;;
483;SDS011;228;48.922;12.198;2022-12-13T07:03:39;15.50;;;7.70;;
483;SDS011;228;48.922;12.198;2022-12-13T07:06:18;18.03;;;7.30;;
483;SDS011;228;48.922;12.198;2022-12-13T07:08:50;14.13;;;7.30;;
483;SDS011;228;48.922;12.198;2022-12-13T07:11:23;11.63;;;7.07;;
483;SDS011;228;48.922;12.198;2022-12-13T07:13:54;13.70;;;7.00;;
483;SDS011;228;48.922;12.198;2022-12-13T07:16:21;12.87;;;7.47;;
483;SDS011;228;48.922;12.198;2022-12-13T07:18:55;15.60;;;6.97;;
483;SDS011;228;48.922;12.198;2022-12-13T07:21:26;17.13;;;7.93;;
483;SDS011;228;48.922;12.198;2022-12-13T07:23:52;13.77;;;7.53;;
483;SDS011;228;48.922;12.198;2022-12-13T07:26:19;11.53;;;7.30;;
483;SDS011;228;48.922;12.198;2022-12-13T07:28:45;18.87;;;7.60;;
483;SDS011;228;48.922;12.198;2022-12-13T07:31:11;15.90;;;7.17;;
483;SDS011;228;48.922;12.198;2022-12-13T07:33:39;14.00;;;7.40;;
483;SDS011;228;48.922;12.198;2022-12-13T07:36:15;21.23;;;7.50;;
483;SDS011;228;48.922;12.198;2022-12-13T07:38:53;13.00;;;7.30;;
483;SDS011;228;48.922;12.198;2022-12-13T07:41:21;16.47;;;7.07;;
483;SDS011;228;48.922;12.198;2022-12-13T07:43:48;14.70;;;8.47;;
483;SDS011;228;48.922;12.198;2022-12-13T07:46:16;15.73;;;7.37;;
483;SDS011;228;48.922;12.198;2022-12-13T07:48:42;18.03;;;7.83;;
483;SDS011;228;48.922;12.198;2022-12-13T07:51:08;14.83;;;7.40;;
483;SDS011;228;48.922;12.198;2022-12-13T07:53:38;13.90;;;8.27;;
483;SDS011;228;48.922;12.198;2022-12-13T07:56:07;16.50;;;7.73;;
483;SDS011;228;48.922;12.198;2022-12-13T07:58:36;13.77;;;7.93;;
483;SDS011;228;48.922;12.198;2022-12-13T08:01:04;18.53;;;8.60;;
483;SDS011;228;48.922;12.198;2022-12-13T08:03:33;14.93;;;7.80;;
483;SDS011;228;48.922;12.198;2022-12-13T08:06:10;17.43;;;8.47;;
483;SDS011;228;48.922;12.198;2022-12-13T08:08:37;20.97;;;8.70;;
483;SDS011;228;48.922;12.198;2022-12-13T08:11:04;15.27;;;7.90;;
483;SDS011;228;48.922;12.198;2022-12-13T08:13:37;17.07;;;7.87;;
483;SDS011;228;48.922;12.198;2022-12-13T08:16:05;19.73;;;9.17;;
483;SDS011;228;48.922;12.198;2022-12-13T08:18:34;12.07;;;7.70;;
483;SDS011;228;48.922;12.198;2022-12-13T08:21:04;16.33;;;7.87;;
483;SDS011;228;48.922;12.198;2022-12-13T08:23:33;15.30;;;8.30;;
483;SDS011;228;48.922;12.198;2022-12-13T08:26:00;15.43;;;6.83;;
483;SDS011;228;48.922;12.198;2022-12-13T08:28:29;17.37;;;6.67;;
483;SDS011;228;48.922;12.198;2022-12-13T08:31:03;13.23;;;7.10;;
483;SDS011;228;48.922;12.198;2022-12-13T08:33:33;13.77;;;6.93;;
483;SDS011;228;48.922;12.198;2022-12-13T08:36:06;15.37;;;7.00;;
483;SDS011;228;48.922;12.198;2022-12-13T08:38:37;12.80;;;7.03;;
483;SDS011;228;48.922;12.198;2022-12-13T08:41:04;16.30;;;9.20;;
483;SDS011;228;48.922;12.198;2022-12-13T08:43:30;14.23;;;8.20;;
483;SDS011;228;48.922;12.198;2022-12-13T08:45:56;12.57;;;7.63;;
483;SDS011;228;48.922;12.198;2022-12-13T08:48:23;18.87;;;8.27;;
483;SDS011;228;48.922;12.198;2022-12-13T08:50:49;14.50;;;7.97;;
483;SDS011;228;48.922;12.198;2022-12-13T08:53:15;18.50;;;7.03;;
483;SDS011;228;48.922;12.198;2022-12-13T08:55:41;13.23;;;6.93;;
483;SDS011;228;48.922;12.198;2022-12-13T08:58:07;15.07;;;7.47;;
483;SDS011;228;48.922;12.198;2022-12-13T09:00:35;14.73;;;7.60;;
483;SDS011;228;48.922;12.198;2022-12-13T09:03:02;15.13;;;8.37;;
483;SDS011;228;48.922;12.198;2022-12-13T09:05:29;16.60;;;8.50;;
483;SDS011;228;48.922;12.198;2022-12-13T09:07:58;17.90;;;7.77;;
483;SDS011;228;48.922;12.198;2022-12-13T09:10:27;15.73;;;7.40;;
483;SDS011;228;48.922;12.198;2022-12-13T09:12:54;16.87;;;8.40;;
483;SDS011;228;48.922;12.198;2022-12-13T09:15:24;20.67;;;9.67;;
483;SDS011;228;48.922;12.198;2022-12-13T09:17:51;13.50;;;8.37;;
483;SDS011;228;48.922;12.198;2022-12-13T09:20:18;15.30;;;8.53;;
483;SDS011;228;48.922;12.198;2022-12-13T09:22:44;17.23;;;9.07;;
483;SDS011;228;48.922;12.198;2022-12-13T09:25:10;18.83;;;8.07;;
483;SDS011;228;48.922;12.198;2022-12-13T09:27:36;16.70;;;9.33;;
483;SDS011;228;48.922;12.198;2022-12-13T09:30:03;14.30;;;8.33;;
483;SDS011;228;48.922;12.198;2022-12-13T09:32:31;16.20;;;8.67;;
483;SDS011;228;48.922;12.198;2022-12-13T09:34:57;14.20;;;7.73;;
483;SDS011;228;48.922;12.198;2022-12-13T09:37:24;12.83;;;7.00;;
483;SDS011;228;48.922;12.198;2022-12-13T09:39:50;15.77;;;8.47;;
483;SDS011;228;48.922;12.198;2022-12-13T09:42:26;18.70;;;8.10;;
483;SDS011;228;48.922;12.198;2022-12-13T09:44:58;19.63;;;10.63;;
483;SDS011;228;48.922;12.198;2022-12-13T09:47:36;13.80;;;7.47;;
483;SDS011;228;48.922;12.198;2022-12-13T09:50:26;16.03;;;7.63;;
483;SDS011;228;48.922;12.198;2022-12-13T09:53:00;16.27;;;9.07;;
483;SDS011;228;48.922;12.198;2022-12-13T09:55:40;17.73;;;7.73;;
483;SDS011;228;48.922;12.198;2022-12-13T09:58:22;14.70;;;8.33;;
483;SDS011;228;48.922;12.198;2022-12-13T10:00:53;16.63;;;8.20;;
483;SDS011;228;48.922;12.198;2022-12-13T10:03:22;12.77;;;7.97;;
483;SDS011;228;48.922;12.198;2022-12-13T10:06:11;15.40;;;7.83;;
483;SDS011;228;48.922;12.198;2022-12-13T10:08:45;16.27;;;7.33;;
483;SDS011;228;48.922;12.198;2022-12-13T10:11:15;13.23;;;6.70;;
483;SDS011;228;48.922;12.198;2022-12-13T10:13:48;14.67;;;7.10;;
483;SDS011;228;48.922;12.198;2022-12-13T10:21:57;11.40;;;6.60;;
483;SDS011;228;48.922;12.198;2022-12-13T10:24:26;14.40;;;6.83;;
483;SDS011;228;48.922;12.198;2022-12-13T10:26:56;12.90;;;6.77;;
483;SDS011;228;48.922;12.198;2022-12-13T10:29:54;16.27;;;7.07;;
483;SDS011;228;48.922;12.198;2022-12-13T10:32:27;15.67;;;8.37;;
483;SDS011;228;48.922;12.198;2022-12-13T10:34:57;14.53;;;7.27;;
483;SDS011;228;48.922;12.198;2022-12-13T10:37:28;11.50;;;6.60;;
483;SDS011;228;48.922;12.198;2022-12-13T10:39:56;11.90;;;7.23;;
483;SDS011;228;48.922;12.198;2022-12-13T10:42:23;14.00;;;7.10;;
483;SDS011;228;48.922;12.198;2022-12-13T10:45:09;12.90;;;6.70;;
483;SDS011;228;48.922;12.198;2022-12-13T10:47:41;13.03;;;7.27;;
483;SDS011;228;48.922;12.198;2022-12-13T10:50:23;13.43;;;6.83;;
483;SDS011;228;48.922;12.198;2022-12-13T10:52:52;10.93;;;6.07;;
483;SDS011;228;48.922;12.198;2022-12-13T10:55:30;13.93;;;6.43;;
483;SDS011;228;48.922;12.198;2022-12-13T10:58:03;16.87;;;7.57;;
483;SDS011;228;48.922;12.198;2022-12-13T11:00:36;15.07;;;7.83;;
483;SDS011;228;48.922;12.198;2022-12-13T11:03:10;15.80;;;7.67;;
483;SDS011;228;48.922;12.198;2022-12-13T11:08:37;14.07;;;7.60;;
483;SDS011;228;48.922;12.198;2022-12-13T11:11:04;13.80;;;7.43;;
483;SDS011;228;48.922;12.198;2022-12-13T11:16:55;11.40;;;6.20;;
483;SDS011;228;48.922;12.198;2022-12-13T11:19:04;11.37;;;6.13;;
483;SDS011;228;48.922;12.198;2022-12-13T11:21:44;16.10;;;7.27;;
483;SDS011;228;48.922;12.198;2022-12-13T11:24:17;9.47;;;5.50;;
483;SDS011;228;48.922;12.198;2022-12-13T11:27:05;13.97;;;6.93;;
483;SDS011;228;48.922;12.198;2022-12-13T11:32:37;11.33;;;6.33;;
483;SDS011;228;48.922;12.198;2022-12-13T11:35:24;17.13;;;8.23;;
483;SDS011;228;48.922;12.198;2022-12-13T11:40:57;12.63;;;7.13;;
483;SDS011;228;48.922;12.198;2022-12-13T11:43:40;13.97;;;7.37;;
483;SDS011;228;48.922;12.198;2022-12-13T11:46:45;14.07;;;7.33;;
483;SDS011;228;48.922;12.198;2022-12-13T11:49:17;11.27;;;6.40;;
483;SDS011;228;48.922;12.198;2022-12-13T11:51:54;12.30;;;7.27;;
483;SDS011;228;48.922;12.198;2022-12-13T12:00:28;11.43;;;7.20;;
483;SDS011;228;48.922;12.198;2022-12-13T12:03:17;12.20;;;6.97;;
483;SDS011;228;48.922;12.198;2022-12-13T12:06:17;12.17;;;6.93;;
483;SDS011;228;48.922;12.198;2022-12-13T12:09:04;11.77;;;7.10;;
483;SDS011;228;48.922;12.198;2022-12-13T12:14:13;11.87;;;7.03;;
483;SDS011;228;48.922;12.198;2022-12-13T12:16:51;10.57;;;7.20;;
483;SDS011;228;48.922;12.198;2022-12-13T12:19:24;10.13;;;6.70;;
483;SDS011;228;48.922;12.198;2022-12-13T12:25:05;11.90;;;7.90;;
483;SDS011;228;48.922;12.198;2022-12-13T12:42:24;12.43;;;7.33;;
483;SDS011;228;48.922;12.198;2022-12-13T12:45:55;8.77;;;5.87;;
483;SDS011;228;48.922;12.198;2022-12-13T12:54:48;10.00;;;6.43;;
483;SDS011;228;48.922;12.198;2022-12-13T12:57:51;9.53;;;6.30;;
483;SDS011;228;48.922;12.198;2022-12-13T13:00:34;9.43;;;6.07;;
483;SDS011;228;48.922;12.198;2022-12-13T13:03:29;10.47;;;6.70;;
483;SDS011;228;48.922;12.198;2022-12-13T13:11:12;13.80;;;7.73;;
483;SDS011;228;48.922;12.198;2022-12-13T13:16:27;11.23;;;6.23;;
483;SDS011;228;48.922;12.198;2022-12-13T13:19:00;11.83;;;5.20;;
483;SDS011;228;48.922;12.198;2022-12-13T13:34:40;10.20;;;5.90;;
483;SDS011;228;48.922;12.198;2022-12-13T13:45:25;8.77;;;5.87;;
483;SDS011;228;48.922;12.198;2022-12-13T13:53:50;10.70;;;5.30;;
483;SDS011;228;48.922;12.198;2022-12-13T14:16:09;9.53;;;5.30;;
483;SDS011;228;48.922;12.198;2022-12-13T14:24:55;10.23;;;5.47;;
483;SDS011;228;48.922;12.198;2022-12-13T14:30:42;8.93;;;4.87;;
483;SDS011;228;48.922;12.198;2022-12-13T14:33:28;10.27;;;7.10;;
483;SDS011;228;48.922;12.198;2022-12-13T14:35:55;10.67;;;5.60;;
483;SDS011;228;48.922;12.198;2022-12-13T14:38:29;10.93;;;5.73;;
483;SDS011;228;48.922;12.198;2022-12-13T14:40:57;9.00;;;5.30;;
483;SDS011;228;48.922;12.198;2022-12-13T14:43:27;10.37;;;5.93;;
483;SDS011;228;48.922;12.198;2022-12-13T14:45:59;12.60;;;6.60;;
483;SDS011;228;48.922;12.198;2022-12-13T14:48:42;13.33;;;4.93;;
483;SDS011;228;48.922;12.198;2022-12-13T14:51:36;9.40;;;4.33;;
483;SDS011;228;48.922;12.198;2022-12-13T14:54:03;9.53;;;4.97;;
483;SDS011;228;48.922;12.198;2022-12-13T14:56:31;11.07;;;5.63;;
483;SDS011;228;48.922;12.198;2022-12-13T14:59:02;6.70;;;4.70;;
483;SDS011;228;48.922;12.198;2022-12-13T15:01:37;8.00;;;4.97;;
483;SDS011;228;48.922;12.198;2022-12-13T15:04:15;9.23;;;5.37;;
483;SDS011;228;48.922;12.198;2022-12-13T15:12:47;12.27;;;5.00;;
483;SDS011;228;48.922;12.198;2022-12-13T15:15:21;7.20;;;4.23;;
483;SDS011;228;48.922;12.198;2022-12-13T15:18:05;6.63;;;3.73;;
483;SDS011;228;48.922;12.198;2022-12-13T15:20:46;7.50;;;4.40;;
483;SDS011;228;48.922;12.198;2022-12-13T15:25:54;6.90;;;4.03;;
483;SDS011;228;48.922;12.198;2022-12-13T15:28:32;9.20;;;4.63;;
483;SDS011;228;48.922;12.198;2022-12-13T15:31:00;6.53;;;4.10;;
483;SDS011;228;48.922;12.198;2022-12-13T15:33:29;6.73;;;4.43;;
483;SDS011;228;48.922;12.198;2022-12-13T15:36:01;7.00;;;4.40;;
483;SDS011;228;48.922;12.198;2022-12-13T15:38:59;10.07;;;4.77;;
483;SDS011;228;48.922;12.198;2022-12-13T15:43:59;11.67;;;5.00;;
483;SDS011;228;48.922;12.198;2022-12-13T15:46:29;9.03;;;5.77;;
483;SDS011;228;48.922;12.198;2022-12-13T15:49:02;8.20;;;5.97;;
483;SDS011;228;48.922;12.198;2022-12-13T15:52:01;11.93;;;7.43;;
483;SDS011;228;48.922;12.198;2022-12-13T15:57:31;8.67;;;5.93;;
483;SDS011;228;48.922;12.198;2022-12-13T16:03:05;8.87;;;4.07;;
483;SDS011;228;48.922;12.198;2022-12-13T16:05:45;6.17;;;4.07;;
483;SDS011;228;48.922;12.198;2022-12-13T16:08:27;9.63;;;4.37;;
483;SDS011;228;48.922;12.198;2022-12-13T16:10:56;10.50;;;6.40;;
483;SDS011;228;48.922;12.198;2022-12-13T16:13:27;10.20;;;5.27;;
483;SDS011;228;48.922;12.198;2022-12-13T16:16:41;9.07;;;4.23;;
483;SDS011;228;48.922;12.198;2022-12-13T16:18:53;6.77;;;3.90;;
483;SDS011;228;48.922;12.198;2022-12-13T16:21:23;7.27;;;3.90;;
483;SDS011;228;48.922;12.198;2022-12-13T16:23:51;14.63;;;6.10;;
483;SDS011;228;48.922;12.198;2022-12-13T16:26:22;8.80;;;5.50;;
483;SDS011;228;48.922;12.198;2022-12-13T16:28:52;14.47;;;7.17;;
483;SDS011;228;48.922;12.198;2022-12-13T16:31:21;10.97;;;5.80;;
483;SDS011;228;48.922;12.198;2022-12-13T16:33:49;8.13;;;4.70;;
483;SDS011;228;48.922;12.198;2022-12-13T16:36:15;8.80;;;4.63;;
483;SDS011;228;48.922;12.198;2022-12-13T16:38:42;6.33;;;4.90;;
483;SDS011;228;48.922;12.198;2022-12-13T16:41:08;6.97;;;4.83;;
483;SDS011;228;48.922;12.198;2022-12-13T16:46:32;11.90;;;5.27;;
483;SDS011;228;48.922;12.198;2022-12-13T16:49:00;8.57;;;5.83;;
483;SDS011;228;48.922;12.198;2022-12-13T16:51:30;9.97;;;5.30;;
483;SDS011;228;48.922;12.198;2022-12-13T16:53:56;18.93;;;9.57;;
483;SDS011;228;48.922;12.198;2022-12-13T16:56:22;11.83;;;6.40;;
483;SDS011;228;48.922;12.198;2022-12-13T16:58:48;9.13;;;4.93;;
483;SDS011;228;48.922;12.198;2022-12-13T17:01:15;13.03;;;6.33;;
483;SDS011;228;48.922;12.198;2022-12-13T17:03:44;12.60;;;6.53;;
483;SDS011;228;48.922;12.198;2022-12-13T17:06:10;12.87;;;7.37;;
483;SDS011;228;48.922;12.198;2022-12-13T17:08:38;15.27;;;7.97;;
483;SDS011;228;48.922;12.198;2022-12-13T17:11:05;11.23;;;6.90;;
483;SDS011;228;48.922;12.198;2022-12-13T17:13:33;10.27;;;7.30;;
483;SDS011;228;48.922;12.198;2022-12-13T17:16:02;10.10;;;6.60;;
483;SDS011;228;48.922;12.198;2022-12-13T17:18:29;10.07;;;5.30;;
483;SDS011;228;48.922;12.198;2022-12-13T17:20:55;13.10;;;8.57;;
483;SDS011;228;48.922;12.198;2022-12-13T17:23:21;19.30;;;10.67;;
483;SDS011;228;48.922;12.198;2022-12-13T17:25:47;26.00;;;12.10;;
483;SDS011;228;48.922;12.198;2022-12-13T17:28:13;29.47;;;14.87;;
483;SDS011;228;48.922;12.198;2022-12-13T17:30:39;31.63;;;15.37;;
483;SDS011;228;48.922;12.198;2022-12-13T17:33:06;31.97;;;15.53;;
483;SDS011;228;48.922;12.198;2022-12-13T17:35:34;25.33;;;14.10;;
483;SDS011;228;48.922;12.198;2022-12-13T17:38:03;23.73;;;11.03;;
483;SDS011;228;48.922;12.198;2022-12-13T17:40:29;24.73;;;13.30;;
483;SDS011;228;48.922;12.198;2022-12-13T17:42:55;19.93;;;9.67;;
483;SDS011;228;48.922;12.198;2022-12-13T17:45:21;22.87;;;11.77;;
483;SDS011;228;48.922;12.198;2022-12-13T17:47:48;15.93;;;9.90;;
483;SDS011;228;48.922;12.198;2022-12-13T17:50:14;33.87;;;14.30;;
483;SDS011;228;48.922;12.198;2022-12-13T17:52:40;25.83;;;14.17;;
483;SDS011;228;48.922;12.198;2022-12-13T17:55:06;27.57;;;13.73;;
483;SDS011;228;48.922;12.198;2022-12-13T17:57:33;25.97;;;13.17;;
483;SDS011;228;48.922;12.198;2022-12-13T18:00:00;29.87;;;14.30;;
483;SDS011;228;48.922;12.198;2022-12-13T18:02:26;22.30;;;11.17;;
483;SDS011;228;48.922;12.198;2022-12-13T18:04:53;19.27;;;9.93;;
483;SDS011;228;48.922;12.198;2022-12-13T18:07:19;17.27;;;9.63;;
483;SDS011;228;48.922;12.198;2022-12-13T18:09:45;22.40;;;9.70;;
483;SDS011;228;48.922;12.198;2022-12-13T18:12:12;15.07;;;8.77;;
483;SDS011;228;48.922;12.198;2022-12-13T18:14:39;15.70;;;9.00;;
483;SDS011;228;48.922;12.198;2022-12-13T18:17:05;16.07;;;7.20;;
483;SDS011;228;48.922;12.198;2022-12-13T18:19:31;14.87;;;7.87;;
483;SDS011;228;48.922;12.198;2022-12-13T18:21:57;16.67;;;8.83;;
483;SDS011;228;48.922;12.198;2022-12-13T18:24:24;13.60;;;7.80;;
483;SDS011;228;48.922;12.198;2022-12-13T18:26:50;12.87;;;7.17;;
483;SDS011;228;48.922;12.198;2022-12-13T18:29:16;12.30;;;6.90;;